sensor_id;sensor_type;location;lat;lon;timestamp;temperature;humidity
61201;DHT22;47065;52.898;6.992;2022-11-20T00:00:50;-1.40;99.90
61201;DHT22;47065;52.898;6.992;2022-11-20T00:03:15;-1.30;99.90
61201;DHT22;47065;52.898;6.992;2022-11-20T00:05:42;-1.30;99.90
61201;DHT22;47065;52.898;6.992;2022-11-20T00:08:08;-1.30;99.90
61201;DHT22;47065;52.898;6.992;2022-11-20T00:10:36;-1.30;99.90
61201;DHT22;47065;52.898;6.992;2022-11-20T00:13:02;-1.30;99.90
61201;DHT22;47065;52.898;6.992;2022-11-20T00:15:28;-1.20;99.90
61201;DHT22;47065;52.898;6.992;2022-11-20T00:17:54;-1.20;99.90
61201;DHT22;47065;52.898;6.992;2022-11-20T00:20:19;-1.20;99.90
61201;DHT22;47065;52.898;6.992;2022-11-20T00:22:45;-1.10;99.90
61201;DHT22;47065;52.898;6.992;2022-11-20T00:25:11;-1.10;99.90
61201;DHT22;47065;52.898;6.992;2022-11-20T00:27:36;-1.10;99.90
61201;DHT22;47065;52.898;6.992;2022-11-20T00:30:03;-1.10;99.90
61201;DHT22;47065;52.898;6.992;2022-11-20T00:32:29;-1.00;99.90
61201;DHT22;47065;52.898;6.992;2022-11-20T00:34:55;-1.00;99.90
61201;DHT22;47065;52.898;6.992;2022-11-20T00:37:21;-1.00;99.90
61201;DHT22;47065;52.898;6.992;2022-11-20T00:39:46;-1.00;99.90
61201;DHT22;47065;52.898;6.992;2022-11-20T00:42:12;-1.00;99.90
61201;DHT22;47065;52.898;6.992;2022-11-20T00:44:38;-1.00;99.90
61201;DHT22;47065;52.898;6.992;2022-11-20T00:47:03;-0.90;99.90
61201;DHT22;47065;52.898;6.992;2022-11-20T00:49:29;-0.90;99.90
61201;DHT22;47065;52.898;6.992;2022-11-20T00:51:55;-0.90;99.90
61201;DHT22;47065;52.898;6.992;2022-11-20T00:54:20;-0.90;99.90
61201;DHT22;47065;52.898;6.992;2022-11-20T00:56:46;-0.80;99.90
61201;DHT22;47065;52.898;6.992;2022-11-20T00:59:12;-0.80;99.90
61201;DHT22;47065;52.898;6.992;2022-11-20T01:01:37;-0.80;99.90
61201;DHT22;47065;52.898;6.992;2022-11-20T01:04:03;-0.70;99.90
61201;DHT22;47065;52.898;6.992;2022-11-20T01:06:32;-0.70;99.90
61201;DHT22;47065;52.898;6.992;2022-11-20T01:09:00;-0.70;99.90
61201;DHT22;47065;52.898;6.992;2022-11-20T01:11:29;-0.70;99.90
61201;DHT22;47065;52.898;6.992;2022-11-20T01:13:56;-0.70;99.90
61201;DHT22;47065;52.898;6.992;2022-11-20T01:18:54;-0.60;99.90
61201;DHT22;47065;52.898;6.992;2022-11-20T01:21:29;-0.60;99.90
61201;DHT22;47065;52.898;6.992;2022-11-20T01:23:55;-0.60;99.90
61201;DHT22;47065;52.898;6.992;2022-11-20T01:26:26;-0.60;99.90
61201;DHT22;47065;52.898;6.992;2022-11-20T01:28:53;-0.50;99.90
61201;DHT22;47065;52.898;6.992;2022-11-20T01:31:25;-0.50;99.90
61201;DHT22;47065;52.898;6.992;2022-11-20T01:33:53;-0.60;99.90
61201;DHT22;47065;52.898;6.992;2022-11-20T01:36:21;-0.50;99.90
61201;DHT22;47065;52.898;6.992;2022-11-20T01:38:48;-0.50;99.90
61201;DHT22;47065;52.898;6.992;2022-11-20T01:41:16;-0.50;99.90
61201;DHT22;47065;52.898;6.992;2022-11-20T01:44:00;-0.50;99.90
61201;DHT22;47065;52.898;6.992;2022-11-20T01:46:27;-0.50;99.90
61201;DHT22;47065;52.898;6.992;2022-11-20T01:51:57;-0.50;99.90
61201;DHT22;47065;52.898;6.992;2022-11-20T01:54:30;-0.40;99.90
61201;DHT22;47065;52.898;6.992;2022-11-20T01:56:59;-0.40;99.90
61201;DHT22;47065;52.898;6.992;2022-11-20T01:59:26;-0.40;99.90
61201;DHT22;47065;52.898;6.992;2022-11-20T02:01:54;-0.40;99.90
61201;DHT22;47065;52.898;6.992;2022-11-20T02:04:20;-0.40;99.90
61201;DHT22;47065;52.898;6.992;2022-11-20T02:09:20;-0.30;99.90
61201;DHT22;47065;52.898;6.992;2022-11-20T02:11:45;-0.30;99.90
61201;DHT22;47065;52.898;6.992;2022-11-20T02:14:11;-0.40;99.90
61201;DHT22;47065;52.898;6.992;2022-11-20T02:16:40;-0.30;99.90
61201;DHT22;47065;52.898;6.992;2022-11-20T02:19:17;-0.40;99.90
61201;DHT22;47065;52.898;6.992;2022-11-20T02:24:22;-0.40;99.90
61201;DHT22;47065;52.898;6.992;2022-11-20T02:26:55;-0.40;99.90
61201;DHT22;47065;52.898;6.992;2022-11-20T02:29:42;-0.40;99.90
61201;DHT22;47065;52.898;6.992;2022-11-20T02:32:20;-0.40;99.90
61201;DHT22;47065;52.898;6.992;2022-11-20T02:34:46;-0.40;99.90
61201;DHT22;47065;52.898;6.992;2022-11-20T02:37:12;-0.40;99.90
61201;DHT22;47065;52.898;6.992;2022-11-20T02:39:40;-0.30;99.90
61201;DHT22;47065;52.898;6.992;2022-11-20T02:42:06;-0.30;99.90
61201;DHT22;47065;52.898;6.992;2022-11-20T02:44:32;-0.30;99.90
61201;DHT22;47065;52.898;6.992;2022-11-20T02:46:58;-0.30;99.90
61201;DHT22;47065;52.898;6.992;2022-11-20T02:49:24;-0.30;99.90
61201;DHT22;47065;52.898;6.992;2022-11-20T02:51:50;-0.30;99.90
61201;DHT22;47065;52.898;6.992;2022-11-20T02:54:16;-0.30;99.90
61201;DHT22;47065;52.898;6.992;2022-11-20T02:56:42;-0.30;99.90
61201;DHT22;47065;52.898;6.992;2022-11-20T02:59:07;-0.30;99.90
61201;DHT22;47065;52.898;6.992;2022-11-20T03:01:33;-0.20;99.90
61201;DHT22;47065;52.898;6.992;2022-11-20T03:03:59;-0.30;99.90
61201;DHT22;47065;52.898;6.992;2022-11-20T03:06:24;-0.20;99.90
61201;DHT22;47065;52.898;6.992;2022-11-20T03:08:50;-0.20;99.90
61201;DHT22;47065;52.898;6.992;2022-11-20T03:11:15;-0.20;99.90
61201;DHT22;47065;52.898;6.992;2022-11-20T03:13:42;-0.20;99.90
61201;DHT22;47065;52.898;6.992;2022-11-20T03:16:10;-0.20;99.90
61201;DHT22;47065;52.898;6.992;2022-11-20T03:18:37;-0.20;99.90
61201;DHT22;47065;52.898;6.992;2022-11-20T03:21:03;-0.20;99.90
61201;DHT22;47065;52.898;6.992;2022-11-20T03:23:30;-0.20;99.90
61201;DHT22;47065;52.898;6.992;2022-11-20T03:26:07;-0.10;99.90
61201;DHT22;47065;52.898;6.992;2022-11-20T03:28:33;-0.10;99.90
61201;DHT22;47065;52.898;6.992;2022-11-20T03:31:13;-0.10;99.90
61201;DHT22;47065;52.898;6.992;2022-11-20T03:33:40;-0.10;99.90
61201;DHT22;47065;52.898;6.992;2022-11-20T03:36:09;-0.10;99.90
61201;DHT22;47065;52.898;6.992;2022-11-20T03:38:36;-0.10;99.90
61201;DHT22;47065;52.898;6.992;2022-11-20T03:41:07;-0.10;99.90
61201;DHT22;47065;52.898;6.992;2022-11-20T03:43:33;-0.10;99.90
61201;DHT22;47065;52.898;6.992;2022-11-20T03:45:59;-0.10;99.90
61201;DHT22;47065;52.898;6.992;2022-11-20T03:48:25;-0.10;99.90
61201;DHT22;47065;52.898;6.992;2022-11-20T03:50:51;-0.10;99.90
61201;DHT22;47065;52.898;6.992;2022-11-20T03:53:17;-0.10;99.90
61201;DHT22;47065;52.898;6.992;2022-11-20T03:55:43;-0.10;99.90
61201;DHT22;47065;52.898;6.992;2022-11-20T03:58:09;-0.10;99.90
61201;DHT22;47065;52.898;6.992;2022-11-20T04:00:35;-0.10;99.90
61201;DHT22;47065;52.898;6.992;2022-11-20T04:03:02;-0.10;99.90
61201;DHT22;47065;52.898;6.992;2022-11-20T04:05:28;-0.10;99.90
61201;DHT22;47065;52.898;6.992;2022-11-20T04:07:53;0.00;99.90
61201;DHT22;47065;52.898;6.992;2022-11-20T04:10:19;0.00;99.90
61201;DHT22;47065;52.898;6.992;2022-11-20T04:12:45;-0.10;99.90
61201;DHT22;47065;52.898;6.992;2022-11-20T04:15:11;0.00;99.90
61201;DHT22;47065;52.898;6.992;2022-11-20T04:17:36;0.00;99.90
61201;DHT22;47065;52.898;6.992;2022-11-20T04:20:02;-0.10;99.90
61201;DHT22;47065;52.898;6.992;2022-11-20T04:22:28;0.00;99.90
61201;DHT22;47065;52.898;6.992;2022-11-20T04:24:54;0.00;99.90
61201;DHT22;47065;52.898;6.992;2022-11-20T04:27:19;0.00;99.90
61201;DHT22;47065;52.898;6.992;2022-11-20T04:29:45;0.00;99.90
61201;DHT22;47065;52.898;6.992;2022-11-20T04:32:10;0.00;99.90
61201;DHT22;47065;52.898;6.992;2022-11-20T04:34:36;0.00;99.90
61201;DHT22;47065;52.898;6.992;2022-11-20T04:37:01;0.00;99.90
61201;DHT22;47065;52.898;6.992;2022-11-20T04:39:27;0.00;99.90
61201;DHT22;47065;52.898;6.992;2022-11-20T04:41:53;0.00;99.90
61201;DHT22;47065;52.898;6.992;2022-11-20T04:44:38;0.00;99.90
61201;DHT22;47065;52.898;6.992;2022-11-20T04:47:04;0.00;99.90
61201;DHT22;47065;52.898;6.992;2022-11-20T04:49:29;0.00;99.90
61201;DHT22;47065;52.898;6.992;2022-11-20T04:51:57;0.10;99.90
61201;DHT22;47065;52.898;6.992;2022-11-20T04:54:22;0.10;99.90
61201;DHT22;47065;52.898;6.992;2022-11-20T04:56:48;0.00;99.90
61201;DHT22;47065;52.898;6.992;2022-11-20T04:59:14;0.10;99.90
61201;DHT22;47065;52.898;6.992;2022-11-20T05:01:39;0.10;99.90
61201;DHT22;47065;52.898;6.992;2022-11-20T05:04:05;0.10;99.90
61201;DHT22;47065;52.898;6.992;2022-11-20T05:06:31;0.10;99.90
61201;DHT22;47065;52.898;6.992;2022-11-20T05:08:57;0.10;99.90
61201;DHT22;47065;52.898;6.992;2022-11-20T05:11:23;0.10;99.90
61201;DHT22;47065;52.898;6.992;2022-11-20T05:13:50;0.10;99.90
61201;DHT22;47065;52.898;6.992;2022-11-20T05:16:18;0.10;99.90
61201;DHT22;47065;52.898;6.992;2022-11-20T05:18:45;0.10;99.90
61201;DHT22;47065;52.898;6.992;2022-11-20T05:21:12;0.10;99.90
61201;DHT22;47065;52.898;6.992;2022-11-20T05:23:38;0.10;99.90
61201;DHT22;47065;52.898;6.992;2022-11-20T05:26:06;0.10;99.90
61201;DHT22;47065;52.898;6.992;2022-11-20T05:28:33;0.10;99.90
61201;DHT22;47065;52.898;6.992;2022-11-20T05:31:10;0.20;99.90
61201;DHT22;47065;52.898;6.992;2022-11-20T05:33:36;0.20;99.90
61201;DHT22;47065;52.898;6.992;2022-11-20T05:36:03;0.20;99.90
61201;DHT22;47065;52.898;6.992;2022-11-20T05:38:29;0.20;99.90
61201;DHT22;47065;52.898;6.992;2022-11-20T05:40:55;0.20;99.90
61201;DHT22;47065;52.898;6.992;2022-11-20T05:43:20;0.20;99.90
61201;DHT22;47065;52.898;6.992;2022-11-20T05:45:55;0.20;99.90
61201;DHT22;47065;52.898;6.992;2022-11-20T05:48:21;0.20;99.90
61201;DHT22;47065;52.898;6.992;2022-11-20T05:50:47;0.20;99.90
61201;DHT22;47065;52.898;6.992;2022-11-20T05:53:13;0.20;99.90
61201;DHT22;47065;52.898;6.992;2022-11-20T05:55:39;0.20;99.90
61201;DHT22;47065;52.898;6.992;2022-11-20T05:58:04;0.20;99.90
61201;DHT22;47065;52.898;6.992;2022-11-20T06:00:30;0.10;99.90
61201;DHT22;47065;52.898;6.992;2022-11-20T06:02:55;0.20;99.90
61201;DHT22;47065;52.898;6.992;2022-11-20T06:05:21;0.10;99.90
61201;DHT22;47065;52.898;6.992;2022-11-20T06:07:47;0.10;99.90
61201;DHT22;47065;52.898;6.992;2022-11-20T06:10:13;0.20;99.90
61201;DHT22;47065;52.898;6.992;2022-11-20T06:12:38;0.10;99.90
61201;DHT22;47065;52.898;6.992;2022-11-20T06:15:05;0.20;99.90
61201;DHT22;47065;52.898;6.992;2022-11-20T06:17:31;0.20;99.90
61201;DHT22;47065;52.898;6.992;2022-11-20T06:19:57;0.20;99.90
61201;DHT22;47065;52.898;6.992;2022-11-20T06:22:22;0.20;99.90
61201;DHT22;47065;52.898;6.992;2022-11-20T06:24:48;0.20;99.90
61201;DHT22;47065;52.898;6.992;2022-11-20T06:27:13;0.20;99.90
61201;DHT22;47065;52.898;6.992;2022-11-20T06:29:39;0.20;99.90
61201;DHT22;47065;52.898;6.992;2022-11-20T06:32:05;0.20;99.90
61201;DHT22;47065;52.898;6.992;2022-11-20T06:34:30;0.20;99.90
61201;DHT22;47065;52.898;6.992;2022-11-20T06:36:56;0.20;99.90
61201;DHT22;47065;52.898;6.992;2022-11-20T06:39:21;0.30;99.90
61201;DHT22;47065;52.898;6.992;2022-11-20T06:41:47;0.20;99.90
61201;DHT22;47065;52.898;6.992;2022-11-20T06:44:12;0.00;99.90
61201;DHT22;47065;52.898;6.992;2022-11-20T06:46:38;-0.20;99.90
61201;DHT22;47065;52.898;6.992;2022-11-20T06:49:04;-0.40;99.90
61201;DHT22;47065;52.898;6.992;2022-11-20T06:51:29;-0.60;99.90
61201;DHT22;47065;52.898;6.992;2022-11-20T06:53:55;-0.70;99.90
61201;DHT22;47065;52.898;6.992;2022-11-20T06:56:21;-0.80;99.90
61201;DHT22;47065;52.898;6.992;2022-11-20T06:58:46;-0.90;99.90
61201;DHT22;47065;52.898;6.992;2022-11-20T07:01:13;-1.00;99.90
61201;DHT22;47065;52.898;6.992;2022-11-20T07:03:39;-1.10;99.90
61201;DHT22;47065;52.898;6.992;2022-11-20T07:06:05;-1.10;99.90
61201;DHT22;47065;52.898;6.992;2022-11-20T07:08:32;-1.10;99.90
61201;DHT22;47065;52.898;6.992;2022-11-20T07:11:00;-1.10;99.90
61201;DHT22;47065;52.898;6.992;2022-11-20T07:13:27;-1.10;99.90
61201;DHT22;47065;52.898;6.992;2022-11-20T07:15:53;-1.10;99.90
61201;DHT22;47065;52.898;6.992;2022-11-20T07:18:19;-1.10;99.90
61201;DHT22;47065;52.898;6.992;2022-11-20T07:20:44;-1.10;99.90
61201;DHT22;47065;52.898;6.992;2022-11-20T07:23:10;-1.10;99.90
61201;DHT22;47065;52.898;6.992;2022-11-20T07:25:35;-1.00;99.90
61201;DHT22;47065;52.898;6.992;2022-11-20T07:28:01;-0.90;99.90
61201;DHT22;47065;52.898;6.992;2022-11-20T07:30:27;-0.80;99.90
61201;DHT22;47065;52.898;6.992;2022-11-20T07:32:54;-0.80;99.90
61201;DHT22;47065;52.898;6.992;2022-11-20T07:35:20;-0.70;99.90
61201;DHT22;47065;52.898;6.992;2022-11-20T07:37:46;-0.60;99.90
61201;DHT22;47065;52.898;6.992;2022-11-20T07:40:14;-0.60;99.90
61201;DHT22;47065;52.898;6.992;2022-11-20T07:42:51;-0.60;99.90
61201;DHT22;47065;52.898;6.992;2022-11-20T07:45:21;-0.50;99.90
61201;DHT22;47065;52.898;6.992;2022-11-20T07:47:47;-0.50;99.90
61201;DHT22;47065;52.898;6.992;2022-11-20T07:50:14;-0.50;99.90
61201;DHT22;47065;52.898;6.992;2022-11-20T07:52:40;-0.40;99.90
61201;DHT22;47065;52.898;6.992;2022-11-20T07:55:06;-0.40;99.90
61201;DHT22;47065;52.898;6.992;2022-11-20T07:57:32;-0.40;99.90
61201;DHT22;47065;52.898;6.992;2022-11-20T07:59:58;-0.40;99.90
61201;DHT22;47065;52.898;6.992;2022-11-20T08:02:23;-0.40;99.90
61201;DHT22;47065;52.898;6.992;2022-11-20T08:04:49;-0.30;99.90
61201;DHT22;47065;52.898;6.992;2022-11-20T08:07:14;-0.30;99.90
61201;DHT22;47065;52.898;6.992;2022-11-20T08:09:40;-0.30;99.90
61201;DHT22;47065;52.898;6.992;2022-11-20T08:12:06;-0.30;99.90
61201;DHT22;47065;52.898;6.992;2022-11-20T08:14:50;-0.30;99.90
61201;DHT22;47065;52.898;6.992;2022-11-20T08:17:15;-0.30;99.90
61201;DHT22;47065;52.898;6.992;2022-11-20T08:19:41;-0.30;99.90
61201;DHT22;47065;52.898;6.992;2022-11-20T08:22:07;-0.30;99.90
61201;DHT22;47065;52.898;6.992;2022-11-20T08:24:32;-0.30;99.90
61201;DHT22;47065;52.898;6.992;2022-11-20T08:26:59;-0.20;99.90
61201;DHT22;47065;52.898;6.992;2022-11-20T08:29:27;-0.10;99.90
61201;DHT22;47065;52.898;6.992;2022-11-20T08:31:53;-0.10;99.90
61201;DHT22;47065;52.898;6.992;2022-11-20T08:34:18;0.00;99.90
61201;DHT22;47065;52.898;6.992;2022-11-20T08:36:44;0.00;99.90
61201;DHT22;47065;52.898;6.992;2022-11-20T08:39:13;0.00;99.90
61201;DHT22;47065;52.898;6.992;2022-11-20T08:41:39;0.00;99.90
61201;DHT22;47065;52.898;6.992;2022-11-20T08:44:07;0.10;99.90
61201;DHT22;47065;52.898;6.992;2022-11-20T08:46:35;0.20;99.90
61201;DHT22;47065;52.898;6.992;2022-11-20T08:49:05;0.20;99.90
61201;DHT22;47065;52.898;6.992;2022-11-20T08:51:31;0.20;99.90
61201;DHT22;47065;52.898;6.992;2022-11-20T08:53:57;0.20;99.90
61201;DHT22;47065;52.898;6.992;2022-11-20T08:56:23;0.20;99.90
61201;DHT22;47065;52.898;6.992;2022-11-20T08:58:50;0.20;99.90
61201;DHT22;47065;52.898;6.992;2022-11-20T09:01:17;0.20;99.90
61201;DHT22;47065;52.898;6.992;2022-11-20T09:03:42;0.30;99.90
61201;DHT22;47065;52.898;6.992;2022-11-20T09:06:08;0.30;99.90
61201;DHT22;47065;52.898;6.992;2022-11-20T09:08:34;0.30;99.90
61201;DHT22;47065;52.898;6.992;2022-11-20T09:11:01;0.20;99.90
61201;DHT22;47065;52.898;6.992;2022-11-20T09:13:28;0.20;99.90
61201;DHT22;47065;52.898;6.992;2022-11-20T09:15:59;0.10;99.90
61201;DHT22;47065;52.898;6.992;2022-11-20T09:18:27;0.10;99.90
61201;DHT22;47065;52.898;6.992;2022-11-20T09:20:58;0.10;99.90
61201;DHT22;47065;52.898;6.992;2022-11-20T09:23:24;0.00;99.90
61201;DHT22;47065;52.898;6.992;2022-11-20T09:25:49;0.00;99.90
61201;DHT22;47065;52.898;6.992;2022-11-20T09:28:15;0.00;99.90
61201;DHT22;47065;52.898;6.992;2022-11-20T09:30:42;0.00;99.90
61201;DHT22;47065;52.898;6.992;2022-11-20T09:33:08;0.00;99.90
61201;DHT22;47065;52.898;6.992;2022-11-20T09:35:34;0.00;99.90
61201;DHT22;47065;52.898;6.992;2022-11-20T09:38:07;0.00;99.90
61201;DHT22;47065;52.898;6.992;2022-11-20T09:40:34;0.00;99.90
61201;DHT22;47065;52.898;6.992;2022-11-20T09:43:32;0.00;99.90
61201;DHT22;47065;52.898;6.992;2022-11-20T09:46:07;0.00;99.90
61201;DHT22;47065;52.898;6.992;2022-11-20T09:54:15;0.10;99.90
61201;DHT22;47065;52.898;6.992;2022-11-20T09:56:54;0.20;99.90
61201;DHT22;47065;52.898;6.992;2022-11-20T09:59:36;0.20;99.90
61201;DHT22;47065;52.898;6.992;2022-11-20T10:04:55;0.30;99.90
61201;DHT22;47065;52.898;6.992;2022-11-20T10:07:32;0.40;99.90
61201;DHT22;47065;52.898;6.992;2022-11-20T10:10:00;0.40;99.90
61201;DHT22;47065;52.898;6.992;2022-11-20T10:12:50;0.40;99.90
61201;DHT22;47065;52.898;6.992;2022-11-20T10:26:30;0.60;99.90
61201;DHT22;47065;52.898;6.992;2022-11-20T10:29:15;0.70;99.90
61201;DHT22;47065;52.898;6.992;2022-11-20T10:31:54;0.80;99.90
61201;DHT22;47065;52.898;6.992;2022-11-20T10:34:31;0.90;99.90
61201;DHT22;47065;52.898;6.992;2022-11-20T10:37:14;1.00;99.90
61201;DHT22;47065;52.898;6.992;2022-11-20T10:42:37;1.20;99.90
61201;DHT22;47065;52.898;6.992;2022-11-20T10:45:31;1.30;99.90
61201;DHT22;47065;52.898;6.992;2022-11-20T10:48:22;1.40;99.90
61201;DHT22;47065;52.898;6.992;2022-11-20T10:57:00;1.80;99.90
61201;DHT22;47065;52.898;6.992;2022-11-20T10:59:45;1.90;99.90
61201;DHT22;47065;52.898;6.992;2022-11-20T11:02:14;2.00;99.90
61201;DHT22;47065;52.898;6.992;2022-11-20T11:04:43;2.10;99.90
61201;DHT22;47065;52.898;6.992;2022-11-20T11:07:16;2.10;99.90
61201;DHT22;47065;52.898;6.992;2022-11-20T11:09:47;2.20;99.90
61201;DHT22;47065;52.898;6.992;2022-11-20T11:12:14;2.20;99.90
61201;DHT22;47065;52.898;6.992;2022-11-20T11:14:54;2.30;99.90
61201;DHT22;47065;52.898;6.992;2022-11-20T11:17:29;2.30;99.90
61201;DHT22;47065;52.898;6.992;2022-11-20T11:19:59;2.40;99.90
61201;DHT22;47065;52.898;6.992;2022-11-20T11:22:25;2.40;99.90
61201;DHT22;47065;52.898;6.992;2022-11-20T11:24:52;2.40;99.90
61201;DHT22;47065;52.898;6.992;2022-11-20T11:27:18;2.50;99.90
61201;DHT22;47065;52.898;6.992;2022-11-20T11:29:44;2.50;99.90
61201;DHT22;47065;52.898;6.992;2022-11-20T11:32:17;2.50;99.90
61201;DHT22;47065;52.898;6.992;2022-11-20T11:34:43;2.50;99.90
61201;DHT22;47065;52.898;6.992;2022-11-20T11:37:21;2.50;99.90
61201;DHT22;47065;52.898;6.992;2022-11-20T11:39:47;2.50;99.90
61201;DHT22;47065;52.898;6.992;2022-11-20T11:42:17;2.50;99.90
61201;DHT22;47065;52.898;6.992;2022-11-20T11:44:45;2.50;99.90
61201;DHT22;47065;52.898;6.992;2022-11-20T11:50:18;2.50;99.90
61201;DHT22;47065;52.898;6.992;2022-11-20T11:53:12;2.50;99.90
61201;DHT22;47065;52.898;6.992;2022-11-20T11:56:09;2.50;99.90
61201;DHT22;47065;52.898;6.992;2022-11-20T12:01:28;2.50;99.90
61201;DHT22;47065;52.898;6.992;2022-11-20T12:04:11;2.50;99.90
61201;DHT22;47065;52.898;6.992;2022-11-20T12:06:43;2.50;99.90
61201;DHT22;47065;52.898;6.992;2022-11-20T12:09:10;2.50;99.90
61201;DHT22;47065;52.898;6.992;2022-11-20T12:11:47;2.60;99.90
61201;DHT22;47065;52.898;6.992;2022-11-20T12:14:30;2.60;99.90
61201;DHT22;47065;52.898;6.992;2022-11-20T12:16:57;2.50;99.90
61201;DHT22;47065;52.898;6.992;2022-11-20T12:19:23;2.50;99.90
61201;DHT22;47065;52.898;6.992;2022-11-20T12:32:28;2.50;99.90
61201;DHT22;47065;52.898;6.992;2022-11-20T12:51:48;2.80;99.90
61201;DHT22;47065;52.898;6.992;2022-11-20T12:54:41;2.90;99.90
61201;DHT22;47065;52.898;6.992;2022-11-20T12:57:34;3.00;99.90
61201;DHT22;47065;52.898;6.992;2022-11-20T13:05:27;3.10;99.90
61201;DHT22;47065;52.898;6.992;2022-11-20T13:07:56;3.00;99.90
61201;DHT22;47065;52.898;6.992;2022-11-20T13:16:06;3.10;99.90
61201;DHT22;47065;52.898;6.992;2022-11-20T13:18:38;3.10;99.90
61201;DHT22;47065;52.898;6.992;2022-11-20T13:21:38;3.20;99.90
61201;DHT22;47065;52.898;6.992;2022-11-20T13:26:46;3.20;99.90
61201;DHT22;47065;52.898;6.992;2022-11-20T13:29:17;3.30;99.90
61201;DHT22;47065;52.898;6.992;2022-11-20T13:31:45;3.40;99.90
61201;DHT22;47065;52.898;6.992;2022-11-20T13:34:21;3.40;99.90
61201;DHT22;47065;52.898;6.992;2022-11-20T13:36:50;3.50;99.90
61201;DHT22;47065;52.898;6.992;2022-11-20T13:39:36;3.50;99.90
61201;DHT22;47065;52.898;6.992;2022-11-20T13:42:20;3.50;99.90
61201;DHT22;47065;52.898;6.992;2022-11-20T13:44:53;3.50;99.90
61201;DHT22;47065;52.898;6.992;2022-11-20T13:47:27;3.50;99.90
61201;DHT22;47065;52.898;6.992;2022-11-20T13:49:55;3.50;99.90
61201;DHT22;47065;52.898;6.992;2022-11-20T13:52:31;3.50;99.90
61201;DHT22;47065;52.898;6.992;2022-11-20T14:00:48;3.40;99.90
61201;DHT22;47065;52.898;6.992;2022-11-20T14:03:21;3.40;99.90
61201;DHT22;47065;52.898;6.992;2022-11-20T14:06:15;3.40;99.90
61201;DHT22;47065;52.898;6.992;2022-11-20T14:08:47;3.40;99.90
61201;DHT22;47065;52.898;6.992;2022-11-20T14:11:16;3.50;99.90
61201;DHT22;47065;52.898;6.992;2022-11-20T14:16:27;3.50;99.90
61201;DHT22;47065;52.898;6.992;2022-11-20T14:18:53;3.50;99.90
61201;DHT22;47065;52.898;6.992;2022-11-20T14:21:29;3.50;99.90
61201;DHT22;47065;52.898;6.992;2022-11-20T14:24:06;3.50;99.90
61201;DHT22;47065;52.898;6.992;2022-11-20T14:26:32;3.40;99.90
61201;DHT22;47065;52.898;6.992;2022-11-20T14:28:59;3.40;99.90
61201;DHT22;47065;52.898;6.992;2022-11-20T14:31:26;3.40;99.90
61201;DHT22;47065;52.898;6.992;2022-11-20T14:33:53;3.40;99.90
61201;DHT22;47065;52.898;6.992;2022-11-20T14:36:21;3.30;99.90
61201;DHT22;47065;52.898;6.992;2022-11-20T14:38:48;3.30;99.90
61201;DHT22;47065;52.898;6.992;2022-11-20T14:41:22;3.20;99.90
61201;DHT22;47065;52.898;6.992;2022-11-20T14:43:56;3.20;99.90
61201;DHT22;47065;52.898;6.992;2022-11-20T14:46:22;3.20;99.90
61201;DHT22;47065;52.898;6.992;2022-11-20T14:48:51;3.10;99.90
61201;DHT22;47065;52.898;6.992;2022-11-20T14:51:35;3.10;99.90
61201;DHT22;47065;52.898;6.992;2022-11-20T14:54:20;3.00;99.90
61201;DHT22;47065;52.898;6.992;2022-11-20T14:57:18;3.00;99.90
61201;DHT22;47065;52.898;6.992;2022-11-20T14:59:44;2.90;99.90
61201;DHT22;47065;52.898;6.992;2022-11-20T15:02:11;2.90;99.90
61201;DHT22;47065;52.898;6.992;2022-11-20T15:04:56;2.80;99.90
61201;DHT22;47065;52.898;6.992;2022-11-20T15:07:30;2.80;99.90
61201;DHT22;47065;52.898;6.992;2022-11-20T15:10:39;2.80;99.90
61201;DHT22;47065;52.898;6.992;2022-11-20T15:12:53;2.70;99.90
61201;DHT22;47065;52.898;6.992;2022-11-20T15:16:12;2.60;99.90
61201;DHT22;47065;52.898;6.992;2022-11-20T15:18:19;2.60;99.90
61201;DHT22;47065;52.898;6.992;2022-11-20T15:20:45;2.60;99.90
61201;DHT22;47065;52.898;6.992;2022-11-20T15:23:14;2.50;99.90
61201;DHT22;47065;52.898;6.992;2022-11-20T15:25:40;2.40;99.90
61201;DHT22;47065;52.898;6.992;2022-11-20T15:30:47;2.30;99.90
61201;DHT22;47065;52.898;6.992;2022-11-20T15:33:14;2.20;99.90
61201;DHT22;47065;52.898;6.992;2022-11-20T15:35:40;2.20;99.90
61201;DHT22;47065;52.898;6.992;2022-11-20T15:38:05;2.10;99.90
61201;DHT22;47065;52.898;6.992;2022-11-20T15:40:31;2.10;99.90
61201;DHT22;47065;52.898;6.992;2022-11-20T15:42:57;2.10;99.90
61201;DHT22;47065;52.898;6.992;2022-11-20T15:45:43;2.00;99.90
61201;DHT22;47065;52.898;6.992;2022-11-20T15:48:23;2.00;99.90
61201;DHT22;47065;52.898;6.992;2022-11-20T15:53:21;2.00;99.90
61201;DHT22;47065;52.898;6.992;2022-11-20T15:55:47;1.90;99.90
61201;DHT22;47065;52.898;6.992;2022-11-20T15:58:12;1.90;99.90
61201;DHT22;47065;52.898;6.992;2022-11-20T16:00:38;1.90;99.90
61201;DHT22;47065;52.898;6.992;2022-11-20T16:03:04;1.90;99.90
61201;DHT22;47065;52.898;6.992;2022-11-20T16:05:29;1.90;99.90
61201;DHT22;47065;52.898;6.992;2022-11-20T16:07:55;1.80;99.90
61201;DHT22;47065;52.898;6.992;2022-11-20T16:10:21;1.80;99.90
61201;DHT22;47065;52.898;6.992;2022-11-20T16:12:47;1.80;99.90
61201;DHT22;47065;52.898;6.992;2022-11-20T16:15:31;1.80;99.90
61201;DHT22;47065;52.898;6.992;2022-11-20T16:18:17;1.80;99.90
61201;DHT22;47065;52.898;6.992;2022-11-20T16:21:02;1.80;99.90
61201;DHT22;47065;52.898;6.992;2022-11-20T16:23:27;1.80;99.90
61201;DHT22;47065;52.898;6.992;2022-11-20T16:25:53;1.70;99.90
61201;DHT22;47065;52.898;6.992;2022-11-20T16:28:19;1.70;99.90
61201;DHT22;47065;52.898;6.992;2022-11-20T16:30:45;1.70;99.90
61201;DHT22;47065;52.898;6.992;2022-11-20T16:33:13;1.70;99.90
61201;DHT22;47065;52.898;6.992;2022-11-20T16:35:39;1.70;99.90
61201;DHT22;47065;52.898;6.992;2022-11-20T16:38:05;1.70;99.90
61201;DHT22;47065;52.898;6.992;2022-11-20T16:40:31;1.70;99.90
61201;DHT22;47065;52.898;6.992;2022-11-20T16:42:56;1.70;99.90
61201;DHT22;47065;52.898;6.992;2022-11-20T16:45:22;1.60;99.90
61201;DHT22;47065;52.898;6.992;2022-11-20T16:47:48;1.60;99.90
61201;DHT22;47065;52.898;6.992;2022-11-20T16:50:14;1.60;99.90
61201;DHT22;47065;52.898;6.992;2022-11-20T16:52:40;1.60;99.90
61201;DHT22;47065;52.898;6.992;2022-11-20T16:55:06;1.60;99.90
61201;DHT22;47065;52.898;6.992;2022-11-20T16:57:32;1.60;99.90
61201;DHT22;47065;52.898;6.992;2022-11-20T16:59:59;1.60;99.90
61201;DHT22;47065;52.898;6.992;2022-11-20T17:02:25;1.60;99.90
61201;DHT22;47065;52.898;6.992;2022-11-20T17:04:54;1.60;99.90
61201;DHT22;47065;52.898;6.992;2022-11-20T17:07:19;1.60;99.90
61201;DHT22;47065;52.898;6.992;2022-11-20T17:09:45;1.60;99.90
61201;DHT22;47065;52.898;6.992;2022-11-20T17:12:10;1.60;99.90
61201;DHT22;47065;52.898;6.992;2022-11-20T17:14:36;1.60;99.90
61201;DHT22;47065;52.898;6.992;2022-11-20T17:17:02;1.60;99.90
61201;DHT22;47065;52.898;6.992;2022-11-20T17:19:27;1.60;99.90
61201;DHT22;47065;52.898;6.992;2022-11-20T17:21:53;1.60;99.90
61201;DHT22;47065;52.898;6.992;2022-11-20T17:24:19;1.60;99.90
61201;DHT22;47065;52.898;6.992;2022-11-20T17:26:47;1.60;99.90
61201;DHT22;47065;52.898;6.992;2022-11-20T17:29:15;1.60;99.90
61201;DHT22;47065;52.898;6.992;2022-11-20T17:31:42;1.60;99.90